Time;durP1;ratioP1;P1;durP2;ratioP2;P2;SDS_P1;SDS_P2;PMS_P1;PMS_P2;Temp;Humidity;BMP_temperature;BMP_pressure;BME280_temperature;BME280_humidity;BME280_pressure;Samples;Min_cycle;Max_cycle;Signal;HPM_P1;HPM_P2
2021/10/12 00:00:46;;;;;;;0.50;0.50;;;16.00;79.40;;;;;;5092052;28;20555;-63
2021/10/12 00:03:12;;;;;;;0.55;0.55;;;16.00;79.40;;;;;;5092810;28;20044;-62
2021/10/12 00:05:37;;;;;;;0.60;0.50;;;16.00;79.50;;;;;;5092312;28;20059;-63
2021/10/12 00:08:03;;;;;;;1.15;0.52;;;16.00;79.40;;;;;;5092607;28;20038;-63
2021/10/12 00:10:30;;;;;;;0.57;0.40;;;16.00;79.40;;;;;;5091899;28;20036;-63
2021/10/12 00:12:55;;;;;;;0.55;0.50;;;16.00;79.50;;;;;;5092996;28;20040;-62
2021/10/12 00:15:21;;;;;;;0.85;0.40;;;16.00;79.40;;;;;;5092237;28;20396;-62
2021/10/12 00:17:47;;;;;;;0.55;0.50;;;16.00;79.50;;;;;;5090985;28;20124;-62
2021/10/12 00:20:13;;;;;;;0.50;0.40;;;16.00;79.50;;;;;;5092564;28;20044;-62
2021/10/12 00:22:39;;;;;;;1.20;0.50;;;16.00;79.50;;;;;;5092214;28;20032;-62
2021/10/12 00:25:06;;;;;;;0.45;0.40;;;16.00;79.40;;;;;;5092437;28;20101;-62
2021/10/12 00:27:32;;;;;;;0.65;0.55;;;16.00;79.40;;;;;;5091249;28;20467;-62
2021/10/12 00:29:58;;;;;;;0.57;0.57;;;16.00;79.40;;;;;;5092245;28;20056;-61
2021/10/12 00:32:24;;;;;;;1.50;0.55;;;16.00;79.40;;;;;;5092120;28;20114;-63
2021/10/12 00:34:49;;;;;;;0.75;0.38;;;16.00;79.40;;;;;;5090949;28;20047;-62
2021/10/12 00:37:16;;;;;;;0.95;0.50;;;16.00;79.40;;;;;;5091890;28;20415;-62
2021/10/12 00:39:42;;;;;;;0.80;0.43;;;16.00;79.40;;;;;;5092140;28;20124;-62
2021/10/12 00:42:08;;;;;;;0.30;0.30;;;16.00;79.50;;;;;;5092014;28;20497;-62
2021/10/12 00:44:34;;;;;;;1.65;0.70;;;16.00;79.40;;;;;;5092377;28;20515;-63
2021/10/12 00:47:02;;;;;;;0.85;0.77;;;16.00;79.40;;;;;;5092285;28;20128;-60
2021/10/12 00:49:28;;;;;;;0.80;0.50;;;16.00;79.40;;;;;;5091746;28;20539;-62
2021/10/12 00:51:54;;;;;;;0.30;0.30;;;16.00;79.40;;;;;;5092027;28;20040;-61
2021/10/12 00:54:20;;;;;;;0.63;0.50;;;16.00;79.40;;;;;;5091471;28;20097;-62
2021/10/12 00:56:46;;;;;;;0.98;0.55;;;16.00;79.40;;;;;;5091933;28;20051;-62
2021/10/12 00:59:12;;;;;;;0.45;0.40;;;16.00;79.40;;;;;;5091110;28;20137;-62
2021/10/12 01:01:39;;;;;;;0.55;0.40;;;16.00;79.40;;;;;;5093538;28;20032;-62
2021/10/12 01:04:06;;;;;;;0.43;0.40;;;16.00;79.40;;;;;;5095901;28;20043;-63
2021/10/12 01:06:32;;;;;;;0.60;0.40;;;16.00;79.40;;;;;;5095066;28;20040;-62
2021/10/12 01:08:58;;;;;;;0.52;0.52;;;16.00;79.40;;;;;;5095330;28;20098;-61
2021/10/12 01:11:24;;;;;;;0.75;0.40;;;16.00;79.40;;;;;;5095820;28;20040;-62
2021/10/12 01:13:50;;;;;;;1.27;0.75;;;16.00;79.40;;;;;;5094582;28;20054;-62
2021/10/12 01:16:17;;;;;;;0.28;0.28;;;16.00;79.40;;;;;;5093744;28;20051;-62
2021/10/12 01:18:55;;;;;;;1.10;0.60;;;16.00;79.40;;;;;;5095369;28;20044;-62
2021/10/12 01:21:21;;;;;;;0.82;0.50;;;16.00;79.40;;;;;;5095068;28;20059;-62
2021/10/12 01:23:47;;;;;;;1.10;0.60;;;16.00;79.40;;;;;;5095333;28;20044;-61
2021/10/12 01:26:13;;;;;;;0.40;0.38;;;16.00;79.40;;;;;;5095169;28;20036;-60
2021/10/12 01:28:40;;;;;;;1.48;0.45;;;16.00;79.40;;;;;;5094995;28;20425;-62
2021/10/12 01:31:10;;;;;;;0.40;0.40;;;16.00;79.40;;;;;;5093817;28;20044;-62
2021/10/12 01:33:35;;;;;;;0.50;0.40;;;16.00;79.40;;;;;;5095042;28;20048;-62
2021/10/12 01:36:01;;;;;;;0.52;0.52;;;16.00;79.40;;;;;;5094376;28;20477;-60
2021/10/12 01:38:33;;;;;;;0.57;0.47;;;16.00;79.40;;;;;;5094819;28;20453;-62
2021/10/12 01:40:59;;;;;;;1.27;0.60;;;16.00;79.40;;;;;;5095074;28;20075;-62
2021/10/12 01:43:25;;;;;;;0.68;0.40;;;16.00;79.40;;;;;;5094621;28;20115;-62
2021/10/12 01:45:51;;;;;;;0.50;0.40;;;16.00;79.50;;;;;;5093571;28;20048;-61
2021/10/12 01:48:17;;;;;;;0.80;0.47;;;16.00;79.40;;;;;;5094843;28;20089;-63
2021/10/12 01:50:42;;;;;;;0.55;0.40;;;16.00;79.40;;;;;;5094388;28;20128;-62
2021/10/12 01:53:08;;;;;;;1.02;0.50;;;16.00;79.50;;;;;;5094690;28;20036;-63
2021/10/12 01:55:34;;;;;;;0.90;0.60;;;16.00;79.40;;;;;;5092723;28;20489;-63
2021/10/12 01:58:00;;;;;;;0.73;0.50;;;16.00;79.40;;;;;;5094111;28;20522;-62
2021/10/12 02:00:26;;;;;;;0.70;0.47;;;16.00;79.40;;;;;;5094182;28;20028;-63
2021/10/12 02:02:52;;;;;;;0.90;0.50;;;16.00;79.40;;;;;;5093998;28;20420;-62
2021/10/12 02:05:18;;;;;;;0.82;0.50;;;16.00;79.40;;;;;;5094540;28;20058;-61
2021/10/12 02:07:44;;;;;;;0.65;0.40;;;16.00;79.40;;;;;;5093080;28;20044;-62
2021/10/12 02:10:10;;;;;;;0.90;0.60;;;16.00;79.40;;;;;;5094520;28;20043;-61
2021/10/12 02:12:36;;;;;;;0.32;0.32;;;16.00;79.40;;;;;;5091897;28;20559;-62
2021/10/12 02:15:02;;;;;;;0.30;0.30;;;16.00;79.40;;;;;;5094481;28;20040;-63
2021/10/12 02:17:28;;;;;;;0.75;0.50;;;16.00;79.40;;;;;;5091078;28;20052;-59
2021/10/12 02:19:54;;;;;;;0.47;0.40;;;16.00;79.40;;;;;;5094373;28;20048;-62
2021/10/12 02:22:20;;;;;;;0.77;0.70;;;16.00;79.50;;;;;;5094436;28;20036;-61
2021/10/12 02:24:46;;;;;;;1.20;0.50;;;16.00;79.40;;;;;;5093710;28;20422;-62
2021/10/12 02:27:12;;;;;;;0.88;0.55;;;16.00;80.00;;;;;;5094008;28;20036;-62
2021/10/12 02:29:38;;;;;;;0.80;0.70;;;16.00;79.40;;;;;;5094016;28;20060;-61
2021/10/12 02:32:04;;;;;;;0.60;0.50;;;16.00;79.40;;;;;;5092336;28;20870;-62
2021/10/12 02:34:30;;;;;;;1.17;0.63;;;16.00;79.40;;;;;;5093748;28;20062;-62
2021/10/12 02:36:56;;;;;;;1.27;0.50;;;16.00;79.50;;;;;;5093877;28;20032;-62
2021/10/12 02:39:22;;;;;;;0.52;0.35;;;16.00;79.40;;;;;;5093902;28;20074;-63
2021/10/12 02:41:48;;;;;;;0.50;0.50;;;16.00;79.40;;;;;;5093659;28;20040;-62
2021/10/12 02:44:14;;;;;;;0.38;0.30;;;16.00;79.40;;;;;;5094107;28;20537;-62
2021/10/12 02:46:40;;;;;;;1.10;0.50;;;16.00;79.40;;;;;;5093658;28;20070;-61
2021/10/12 02:49:05;;;;;;;0.95;0.60;;;16.00;79.50;;;;;;5091512;28;20050;-62
2021/10/12 02:51:31;;;;;;;0.40;0.40;;;16.00;79.40;;;;;;5093931;28;20051;-62
2021/10/12 02:53:57;;;;;;;0.80;0.50;;;16.00;79.40;;;;;;5093542;28;20039;-62
2021/10/12 02:56:22;;;;;;;0.50;0.50;;;16.00;79.40;;;;;;5093684;28;20102;-61
2021/10/12 02:58:48;;;;;;;0.30;0.25;;;16.00;79.50;;;;;;5093336;28;20369;-62
2021/10/12 03:01:13;;;;;;;0.68;0.40;;;16.00;79.50;;;;;;5093739;28;20080;-61
2021/10/12 03:03:39;;;;;;;0.70;0.60;;;16.00;79.40;;;;;;5093038;28;20403;-62
2021/10/12 03:06:05;;;;;;;0.63;0.60;;;16.00;79.40;;;;;;5092835;28;20040;-61
2021/10/12 03:08:31;;;;;;;1.02;0.45;;;16.00;79.40;;;;;;5093289;28;20074;-63
2021/10/12 03:10:56;;;;;;;1.50;0.60;;;16.00;79.40;;;;;;5093156;28;20075;-63
2021/10/12 03:13:22;;;;;;;0.40;0.40;;;16.00;79.40;;;;;;5093609;28;20126;-62
2021/10/12 03:15:48;;;;;;;1.17;0.68;;;16.00;79.40;;;;;;5092651;28;20097;-62
2021/10/12 03:18:13;;;;;;;0.52;0.40;;;15.90;79.40;;;;;;5092658;28;20028;-62
2021/10/12 03:20:39;;;;;;;0.50;0.40;;;16.00;79.40;;;;;;5092188;28;20044;-62
2021/10/12 03:23:05;;;;;;;0.75;0.57;;;16.10;79.50;;;;;;5093362;28;20322;-62
2021/10/12 03:25:31;;;;;;;0.55;0.40;;;16.00;79.40;;;;;;5092904;28;20055;-62
2021/10/12 03:27:57;;;;;;;1.02;0.50;;;16.00;79.40;;;;;;5093022;28;20032;-61
2021/10/12 03:30:22;;;;;;;0.30;0.30;;;16.00;79.50;;;;;;5092699;28;20044;-61
2021/10/12 03:32:48;;;;;;;2.88;0.50;;;16.00;79.40;;;;;;5092647;28;20396;-62
2021/10/12 03:35:18;;;;;;;0.68;0.60;;;16.00;79.40;;;;;;5092423;28;20404;-61
2021/10/12 03:37:44;;;;;;;0.57;0.50;;;16.00;79.40;;;;;;5087879;28;20115;-62
2021/10/12 03:40:11;;;;;;;1.13;0.55;;;16.00;79.40;;;;;;5092591;28;20531;-62
2021/10/12 03:42:36;;;;;;;1.05;0.40;;;16.00;79.50;;;;;;5092210;28;20072;-62
2021/10/12 03:45:03;;;;;;;0.43;0.43;;;16.00;79.50;;;;;;5092923;28;20078;-59
2021/10/12 03:47:28;;;;;;;0.93;0.40;;;16.00;79.50;;;;;;5091482;28;20048;-62
2021/10/12 03:49:54;;;;;;;0.85;0.40;;;16.00;79.50;;;;;;5092955;28;20474;-60
2021/10/12 03:52:20;;;;;;;0.35;0.30;;;16.00;79.50;;;;;;5091871;28;20042;-63
2021/10/12 03:54:45;;;;;;;0.40;0.30;;;16.00;79.40;;;;;;5092110;28;20040;-62
2021/10/12 03:57:11;;;;;;;0.95;0.63;;;15.90;79.40;;;;;;5091636;28;20052;-63
2021/10/12 03:59:37;;;;;;;0.88;0.60;;;15.90;79.40;;;;;;5092299;28;20517;-62
2021/10/12 04:02:02;;;;;;;0.82;0.50;;;16.00;79.40;;;;;;5091794;28;20060;-62
2021/10/12 04:04:28;;;;;;;0.43;0.30;;;16.00;79.40;;;;;;5092036;28;20488;-63
2021/10/12 04:06:54;;;;;;;1.15;0.60;;;15.90;79.40;;;;;;5092504;28;20119;-63
2021/10/12 04:09:19;;;;;;;0.40;0.40;;;15.90;79.40;;;;;;5091533;28;20036;-60
2021/10/12 04:11:45;;;;;;;0.73;0.40;;;16.00;80.00;;;;;;5092634;28;20051;-61
2021/10/12 04:14:10;;;;;;;0.40;0.40;;;16.00;79.40;;;;;;5092414;28;20079;-62
2021/10/12 04:16:36;;;;;;;0.70;0.40;;;16.00;79.40;;;;;;5091146;28;20108;-61
2021/10/12 04:19:02;;;;;;;1.85;0.50;;;15.90;79.40;;;;;;5089484;28;20044;-62
2021/10/12 04:21:28;;;;;;;0.30;0.30;;;15.90;79.40;;;;;;5092795;28;20472;-62
2021/10/12 04:23:53;;;;;;;0.60;0.40;;;16.00;79.40;;;;;;5091494;28;20051;-62
2021/10/12 04:26:19;;;;;;;0.35;0.35;;;16.00;79.50;;;;;;5092432;28;20119;-62
2021/10/12 04:28:45;;;;;;;0.93;0.40;;;15.90;79.40;;;;;;5092484;28;20044;-62
2021/10/12 04:31:11;;;;;;;0.80;0.50;;;16.00;79.50;;;;;;5091964;28;20086;-61
2021/10/12 04:33:37;;;;;;;0.45;0.45;;;16.00;79.50;;;;;;5091881;28;20657;-61
2021/10/12 04:36:03;;;;;;;0.65;0.30;;;15.90;79.40;;;;;;5093432;28;20123;-62
2021/10/12 04:38:29;;;;;;;0.88;0.40;;;15.90;79.40;;;;;;5095790;28;20483;-62
2021/10/12 04:40:55;;;;;;;0.60;0.52;;;16.00;79.50;;;;;;5096185;28;20048;-62
2021/10/12 04:43:21;;;;;;;0.70;0.30;;;15.90;79.40;;;;;;5096256;28;20032;-62
2021/10/12 04:45:46;;;;;;;0.70;0.30;;;15.90;79.40;;;;;;5096013;28;20051;-61
2021/10/12 04:48:15;;;;;;;1.13;0.40;;;15.90;79.40;;;;;;5096158;28;20035;-62
2021/10/12 04:50:40;;;;;;;0.80;0.65;;;15.90;79.40;;;;;;5095626;28;20058;-62
2021/10/12 04:53:06;;;;;;;0.75;0.60;;;16.00;79.40;;;;;;5095920;28;20130;-62
2021/10/12 04:55:32;;;;;;;1.20;0.40;;;15.90;79.40;;;;;;5094830;28;20093;-62
2021/10/12 04:57:59;;;;;;;1.00;0.50;;;16.00;79.40;;;;;;5095950;28;20032;-62
2021/10/12 05:00:24;;;;;;;0.47;0.40;;;16.00;79.40;;;;;;5095239;28;20052;-63
2021/10/12 05:02:50;;;;;;;0.30;0.30;;;16.00;79.40;;;;;;5095174;28;20443;-62
2021/10/12 05:05:16;;;;;;;0.52;0.52;;;15.90;79.40;;;;;;5094889;28;20036;-61
2021/10/12 05:07:42;;;;;;;1.05;0.50;;;15.90;79.40;;;;;;5095498;28;20069;-62
2021/10/12 05:10:08;;;;;;;0.98;0.50;;;16.00;79.40;;;;;;5095167;28;20127;-62
2021/10/12 05:12:34;;;;;;;1.15;0.40;;;15.90;79.40;;;;;;5094845;28;20047;-61
2021/10/12 05:15:00;;;;;;;1.50;0.75;;;15.90;79.40;;;;;;5095543;28;20046;-59
2021/10/12 05:17:32;;;;;;;0.68;0.30;;;15.90;79.40;;;;;;5095148;28;20495;-62
2021/10/12 05:19:58;;;;;;;0.30;0.20;;;16.00;79.40;;;;;;5095064;28;20036;-62
2021/10/12 05:22:23;;;;;;;0.50;0.40;;;15.90;79.40;;;;;;5095273;28;20085;-62
2021/10/12 05:24:49;;;;;;;0.85;0.50;;;15.90;79.40;;;;;;5094899;28;20040;-61
2021/10/12 05:27:15;;;;;;;1.08;0.40;;;15.90;79.40;;;;;;5094581;28;20085;-62
2021/10/12 05:29:40;;;;;;;0.40;0.35;;;15.90;79.40;;;;;;5094903;28;20052;-61
2021/10/12 05:32:06;;;;;;;0.82;0.50;;;15.90;79.40;;;;;;5094783;28;20079;-60
2021/10/12 05:34:33;;;;;;;0.55;0.40;;;15.90;79.40;;;;;;5094051;28;20127;-61
2021/10/12 05:36:59;;;;;;;0.68;0.30;;;15.90;79.40;;;;;;5094657;28;20456;-60
2021/10/12 05:39:28;;;;;;;1.17;0.30;;;15.90;79.40;;;;;;5095043;28;20069;-62
2021/10/12 05:41:54;;;;;;;1.13;0.40;;;15.90;79.40;;;;;;5093598;28;20064;-62
2021/10/12 05:44:20;;;;;;;0.55;0.55;;;15.90;79.40;;;;;;5094120;28;20040;-62
2021/10/12 05:46:46;;;;;;;0.40;0.35;;;15.90;79.50;;;;;;5094504;28;20138;-61
2021/10/12 05:49:11;;;;;;;0.57;0.30;;;15.90;79.40;;;;;;5093834;28;20568;-62
2021/10/12 05:51:37;;;;;;;0.55;0.40;;;15.90;79.40;;;;;;5094692;28;20044;-61
2021/10/12 05:54:05;;;;;;;0.40;0.30;;;15.90;79.40;;;;;;5094171;28;20036;-62
2021/10/12 05:56:41;;;;;;;0.75;0.55;;;15.90;79.40;;;;;;5074198;28;20512;-62
2021/10/12 05:59:06;;;;;;;0.40;0.40;;;16.00;79.40;;;;;;5091551;28;20040;-62
2021/10/12 06:01:35;;;;;;;0.52;0.43;;;15.90;79.40;;;;;;5092134;28;20472;-62
2021/10/12 06:04:01;;;;;;;1.08;0.43;;;15.90;79.40;;;;;;5093147;28;20766;-62
2021/10/12 06:06:26;;;;;;;0.32;0.32;;;15.90;79.40;;;;;;5093892;28;20036;-62
2021/10/12 06:08:52;;;;;;;0.65;0.30;;;15.90;79.40;;;;;;5092950;28;20125;-61
2021/10/12 06:11:18;;;;;;;0.38;0.30;;;15.90;79.40;;;;;;5094075;28;20054;-63
2021/10/12 06:13:44;;;;;;;0.30;0.30;;;15.80;79.30;;;;;;5094175;28;20667;-61
2021/10/12 06:16:10;;;;;;;0.40;0.22;;;15.90;79.40;;;;;;5093338;28;20040;-62
2021/10/12 06:18:36;;;;;;;0.57;0.40;;;15.90;79.40;;;;;;5094177;28;20129;-62
2021/10/12 06:21:02;;;;;;;0.40;0.40;;;15.90;79.40;;;;;;5093577;28;20126;-63
2021/10/12 06:23:27;;;;;;;1.38;0.52;;;15.90;79.40;;;;;;5093841;28;20468;-63
2021/10/12 06:25:53;;;;;;;0.32;0.28;;;15.90;79.40;;;;;;5093448;28;20058;-62
2021/10/12 06:28:21;;;;;;;0.50;0.28;;;15.90;79.40;;;;;;5093974;28;20036;-62
2021/10/12 06:30:47;;;;;;;0.60;0.50;;;15.90;79.40;;;;;;5092311;28;20119;-63
2021/10/12 06:33:13;;;;;;;2.45;0.68;;;15.90;79.40;;;;;;5094222;28;20389;-63
2021/10/12 06:35:39;;;;;;;0.85;0.30;;;15.90;79.40;;;;;;5093963;28;20083;-62
2021/10/12 06:38:06;;;;;;;1.02;0.50;;;15.90;79.40;;;;;;5092316;28;20083;-63
2021/10/12 06:40:33;;;;;;;0.73;0.40;;;15.90;79.40;;;;;;5091805;28;20044;-63
2021/10/12 06:43:00;;;;;;;1.05;0.40;;;15.90;79.40;;;;;;5092720;28;20047;-62
2021/10/12 06:45:26;;;;;;;0.80;0.50;;;15.90;79.40;;;;;;5093706;28;20131;-63
2021/10/12 06:47:52;;;;;;;0.93;0.40;;;15.90;79.40;;;;;;5093412;28;20051;-61
2021/10/12 06:50:21;;;;;;;1.63;0.30;;;15.90;79.40;;;;;;5093564;28;20050;-61
2021/10/12 06:52:46;;;;;;;0.60;0.50;;;15.90;79.30;;;;;;5093327;28;20051;-61
2021/10/12 06:55:14;;;;;;;0.38;0.30;;;15.90;79.30;;;;;;5093118;28;20036;-62
2021/10/12 06:57:41;;;;;;;2.30;0.50;;;16.00;79.40;;;;;;5093392;28;20080;-63
2021/10/12 07:00:11;;;;;;;0.38;0.30;;;15.90;79.40;;;;;;5092626;28;20476;-63
2021/10/12 07:02:37;;;;;;;0.47;0.40;;;15.90;79.40;;;;;;5092548;28;20471;-63
2021/10/12 07:05:04;;;;;;;0.50;0.43;;;15.90;79.30;;;;;;5126268;27;20477;-63
2021/10/12 07:07:31;;;;;;;1.27;0.40;;;15.90;79.30;;;;;;5093172;28;20040;-63
2021/10/12 07:09:57;;;;;;;1.65;0.43;;;15.90;79.30;;;;;;5092671;28;20052;-61
2021/10/12 07:12:23;;;;;;;1.70;0.85;;;15.90;79.40;;;;;;5092922;28;20044;-61
2021/10/12 07:14:49;;;;;;;1.23;0.57;;;15.90;79.10;;;;;;5092443;28;20433;-61
2021/10/12 07:17:14;;;;;;;1.38;0.82;;;15.90;79.00;;;;;;5091282;28;20097;-61
2021/10/12 07:19:40;;;;;;;4.53;0.90;;;15.90;79.20;;;;;;5092253;28;20044;-61
2021/10/12 07:22:05;;;;;;;1.67;0.63;;;15.90;79.20;;;;;;5092849;28;20074;-61
2021/10/12 07:24:31;;;;;;;2.17;0.68;;;15.90;79.30;;;;;;5086204;28;20032;-62
2021/10/12 07:26:57;;;;;;;6.53;1.65;;;15.90;79.30;;;;;;5081458;28;20446;-61
2021/10/12 07:29:23;;;;;;;1.85;0.60;;;15.90;79.40;;;;;;5089835;28;20040;-60
2021/10/12 07:31:49;;;;;;;2.58;0.68;;;15.90;79.40;;;;;;5092569;28;20054;-61
2021/10/12 07:34:15;;;;;;;1.67;0.60;;;15.90;79.40;;;;;;5092287;28;20369;-61
2021/10/12 07:36:40;;;;;;;2.55;0.63;;;15.90;79.40;;;;;;5091334;28;20075;-61
2021/10/12 07:39:07;;;;;;;2.50;0.95;;;15.90;79.40;;;;;;5090895;28;20086;-62
2021/10/12 07:41:34;;;;;;;2.45;0.70;;;15.90;79.40;;;;;;5092253;28;20110;-62
2021/10/12 07:44:00;;;;;;;2.03;0.73;;;15.90;79.40;;;;;;5092040;28;20043;-61
2021/10/12 07:46:27;;;;;;;1.35;0.63;;;15.90;79.40;;;;;;5092204;28;20122;-61
2021/10/12 07:48:54;;;;;;;1.73;0.60;;;15.90;79.40;;;;;;5092222;28;20081;-61
2021/10/12 07:51:20;;;;;;;2.20;0.55;;;15.90;79.40;;;;;;5091039;28;20449;-61
2021/10/12 07:53:47;;;;;;;2.60;0.80;;;15.90;79.40;;;;;;5091990;28;20036;-60
2021/10/12 07:56:18;;;;;;;1.48;0.88;;;15.90;79.40;;;;;;5091966;28;20105;-63
2021/10/12 07:58:44;;;;;;;1.83;0.70;;;15.90;79.40;;;;;;5083987;28;20044;-60
2021/10/12 08:01:10;;;;;;;1.55;0.60;;;15.90;79.40;;;;;;5091721;28;20062;-59
2021/10/12 08:03:35;;;;;;;0.98;0.70;;;15.90;79.40;;;;;;5091669;28;20064;-61
2021/10/12 08:06:01;;;;;;;1.25;0.68;;;15.90;79.40;;;;;;5091733;28;20047;-61
2021/10/12 08:08:27;;;;;;;0.80;0.60;;;15.90;79.40;;;;;;5092518;28;20036;-61
2021/10/12 08:10:53;;;;;;;1.33;0.60;;;15.90;80.00;;;;;;5092709;28;20060;-61
2021/10/12 08:13:21;;;;;;;0.73;0.70;;;15.90;79.40;;;;;;5096462;28;20471;-63
2021/10/12 08:15:53;;;;;;;1.08;0.60;;;15.90;79.40;;;;;;5077935;28;20044;-63
2021/10/12 08:18:18;;;;;;;2.42;0.85;;;15.90;79.40;;;;;;5096409;28;20044;-64
2021/10/12 08:20:47;;;;;;;1.85;0.50;;;15.90;79.40;;;;;;5095412;28;20141;-59
2021/10/12 08:23:12;;;;;;;1.95;0.55;;;15.90;79.40;;;;;;5095285;28;20466;-60
2021/10/12 08:25:38;;;;;;;1.15;0.40;;;15.90;80.10;;;;;;5095928;28;20079;-61
2021/10/12 08:28:04;;;;;;;1.10;0.40;;;15.90;79.40;;;;;;5096400;28;20361;-61
2021/10/12 08:30:30;;;;;;;1.05;0.50;;;15.90;79.40;;;;;;5095868;28;20088;-61
2021/10/12 08:32:55;;;;;;;0.60;0.40;;;15.90;79.40;;;;;;5096358;28;20418;-64
2021/10/12 08:35:21;;;;;;;1.45;0.75;;;15.90;79.40;;;;;;5095512;28;20036;-64
2021/10/12 08:37:47;;;;;;;1.80;0.50;;;15.90;79.40;;;;;;5095918;28;20043;-64
2021/10/12 08:40:14;;;;;;;1.65;0.40;;;15.90;79.40;;;;;;5095577;28;20474;-64
2021/10/12 08:42:48;;;;;;;0.63;0.57;;;15.90;79.40;;;;;;5095669;28;20048;-64
2021/10/12 08:45:14;;;;;;;0.90;0.60;;;15.90;79.40;;;;;;5094122;28;20048;-64
2021/10/12 08:47:40;;;;;;;1.83;0.95;;;15.90;79.50;;;;;;5095309;28;20495;-64
2021/10/12 08:50:13;;;;;;;2.25;0.60;;;15.90;79.40;;;;;;5093051;28;20142;-64
2021/10/12 08:52:38;;;;;;;2.20;0.70;;;15.90;79.40;;;;;;5095200;28;20048;-63
2021/10/12 08:55:05;;;;;;;2.20;0.70;;;15.90;79.40;;;;;;5094995;28;20055;-64
2021/10/12 08:57:33;;;;;;;1.55;0.70;;;15.90;79.40;;;;;;5093913;28;20044;-65
2021/10/12 09:00:19;;;;;;;1.67;0.63;;;15.90;79.40;;;;;;5092764;28;20514;-64
2021/10/12 09:05:50;;;;;;;0.95;0.50;;;15.90;79.50;;;;;;5093005;28;20056;-63
2021/10/12 09:08:26;;;;;;;0.77;0.57;;;15.90;79.40;;;;;;5084592;28;20728;-64
2021/10/12 09:10:52;;;;;;;1.00;0.52;;;15.90;79.40;;;;;;5095507;28;20136;-64
2021/10/12 09:13:18;;;;;;;1.75;0.70;;;15.90;79.40;;;;;;5094879;28;20032;-63
2021/10/12 09:16:02;;;;;;;0.95;0.60;;;15.90;79.40;;;;;;5094932;28;20032;-64
2021/10/12 09:18:51;;;;;;;1.52;0.52;;;16.00;79.50;;;;;;5094281;28;20485;-64
2021/10/12 09:21:23;;;;;;;0.80;0.68;;;15.90;79.50;;;;;;5094291;28;20538;-64
2021/10/12 09:23:50;;;;;;;0.90;0.50;;;15.90;79.40;;;;;;5094154;28;20115;-63
2021/10/12 09:26:21;;;;;;;0.93;0.30;;;15.90;79.40;;;;;;5093377;28;20067;-63
2021/10/12 09:28:46;;;;;;;0.73;0.50;;;15.90;79.40;;;;;;5094045;28;20089;-64
2021/10/12 09:31:12;;;;;;;0.55;0.40;;;16.00;79.50;;;;;;5094579;28;20504;-64
2021/10/12 09:33:49;;;;;;;1.08;0.50;;;15.90;79.40;;;;;;5094017;28;20043;-61
2021/10/12 09:36:29;;;;;;;0.80;0.50;;;15.90;79.40;;;;;;5093474;28;20511;-63
2021/10/12 09:38:56;;;;;;;0.45;0.35;;;15.90;79.50;;;;;;5094740;28;20050;-64
2021/10/12 09:41:26;;;;;;;0.88;0.50;;;15.90;79.40;;;;;;5093694;28;20115;-63
2021/10/12 09:44:04;;;;;;;0.90;0.40;;;15.90;79.40;;;;;;5092733;28;20185;-64
2021/10/12 09:46:31;;;;;;;1.23;0.43;;;15.90;79.40;;;;;;5094581;28;20044;-62
2021/10/12 09:49:22;;;;;;;1.55;0.60;;;15.90;79.40;;;;;;5093918;28;20046;-61
2021/10/12 09:52:10;;;;;;;0.80;0.60;;;16.00;79.50;;;;;;5075099;28;20044;-64
2021/10/12 09:54:37;;;;;;;0.60;0.40;;;16.00;79.50;;;;;;5094008;28;20070;-64
2021/10/12 09:57:05;;;;;;;0.38;0.30;;;15.90;79.40;;;;;;5093640;28;20472;-63
2021/10/12 09:59:32;;;;;;;1.05;0.50;;;16.00;79.40;;;;;;5093483;28;20051;-63
2021/10/12 10:01:59;;;;;;;3.90;0.93;;;15.90;79.40;;;;;;5092242;28;20048;-61
2021/10/12 10:04:26;;;;;;;3.83;1.10;;;15.90;77.40;;;;;;5091541;28;20178;-62
2021/10/12 10:06:57;;;;;;;1.88;1.05;;;15.90;76.80;;;;;;5092931;28;20043;-62
2021/10/12 10:09:24;;;;;;;6.47;1.02;;;15.90;76.80;;;;;;5093404;28;20058;-62
2021/10/12 10:11:50;;;;;;;4.43;0.82;;;16.00;76.90;;;;;;5091142;28;20050;-63
2021/10/12 10:14:18;;;;;;;3.30;1.00;;;15.90;76.90;;;;;;5093541;28;20051;-60
2021/10/12 10:16:46;;;;;;;2.78;0.73;;;15.90;77.10;;;;;;5093217;28;20045;-63
2021/10/12 10:19:26;;;;;;;3.28;1.20;;;15.90;77.20;;;;;;5093488;28;20119;-63
2021/10/12 10:21:53;;;;;;;2.83;0.90;;;15.90;77.40;;;;;;5093582;28;20043;-63
2021/10/12 10:24:33;;;;;;;2.30;0.90;;;15.90;77.40;;;;;;5093620;28;20532;-63
2021/10/12 10:27:01;;;;;;;5.40;1.02;;;15.90;77.60;;;;;;5093648;28;20051;-61
2021/10/12 10:29:27;;;;;;;2.15;0.80;;;15.90;78.30;;;;;;5093451;28;20044;-62
2021/10/12 10:31:58;;;;;;;3.45;0.65;;;15.90;77.80;;;;;;5091452;28;20248;-63
2021/10/12 10:34:31;;;;;;;2.33;0.60;;;15.90;77.90;;;;;;5085179;28;20051;-60
2021/10/12 10:37:15;;;;;;;1.35;0.70;;;15.90;78.00;;;;;;5073754;28;20052;-62
2021/10/12 10:39:42;;;;;;;0.93;0.60;;;15.90;78.20;;;;;;5080028;28;20092;-62
2021/10/12 10:42:29;;;;;;;1.05;0.55;;;15.90;78.10;;;;;;5092753;28;20169;-59
2021/10/12 10:44:54;;;;;;;1.73;0.77;;;15.90;78.20;;;;;;5091693;28;20123;-62
2021/10/12 10:47:41;;;;;;;1.65;0.43;;;15.90;78.30;;;;;;5092829;28;20470;-61
2021/10/12 10:50:29;;;;;;;0.98;0.52;;;15.90;78.50;;;;;;5092678;28;20166;-61
2021/10/12 10:53:00;;;;;;;0.77;0.50;;;15.90;78.50;;;;;;5092923;28;20093;-62
2021/10/12 10:55:30;;;;;;;1.55;0.55;;;15.90;78.50;;;;;;5093078;28;20040;-60
2021/10/12 10:58:13;;;;;;;1.48;0.80;;;15.90;78.60;;;;;;5092627;28;20083;-59
2021/10/12 11:00:45;;;;;;;3.50;0.73;;;15.90;78.60;;;;;;5092565;28;20077;-63
2021/10/12 11:03:31;;;;;;;3.28;1.02;;;15.90;78.70;;;;;;5092532;28;20093;-62
2021/10/12 11:05:59;;;;;;;0.77;0.47;;;16.00;78.80;;;;;;5092599;28;20047;-63
2021/10/12 11:08:29;;;;;;;2.75;0.82;;;15.90;78.80;;;;;;5092678;28;20093;-63
2021/10/12 11:10:56;;;;;;;1.42;0.57;;;15.90;78.80;;;;;;5092084;28;20044;-61
2021/10/12 11:13:32;;;;;;;1.38;0.45;;;16.00;78.90;;;;;;5092621;28;20388;-61
2021/10/12 11:15:58;;;;;;;3.63;0.98;;;15.90;78.90;;;;;;5089630;28;20051;-62
2021/10/12 11:18:24;;;;;;;0.65;0.45;;;15.90;79.50;;;;;;5092443;28;20046;-61
2021/10/12 11:20:53;;;;;;;0.93;0.77;;;15.90;78.90;;;;;;5092198;28;20131;-61
2021/10/12 11:24:00;;;;;;;1.05;0.45;;;16.00;79.00;;;;;;5092211;28;20388;-63
2021/10/12 11:26:27;;;;;;;1.10;0.43;;;16.00;79.00;;;;;;5092379;28;20051;-60
2021/10/12 11:28:58;;;;;;;1.08;0.50;;;16.00;79.10;;;;;;5092210;28;20036;-61
2021/10/12 11:31:26;;;;;;;1.20;0.60;;;15.90;79.00;;;;;;5091437;28;20052;-60
2021/10/12 11:33:57;;;;;;;0.73;0.43;;;16.00;79.20;;;;;;5091801;28;20048;-61
2021/10/12 11:36:26;;;;;;;6.53;1.70;;;16.00;79.20;;;;;;5092181;28;20084;-62
2021/10/12 11:38:57;;;;;;;3.00;1.30;;;15.90;77.80;;;;;;5091793;28;20130;-63
2021/10/12 11:41:30;;;;;;;3.55;1.40;;;15.90;77.10;;;;;;5088211;28;20097;-62
2021/10/12 11:43:59;;;;;;;6.45;1.60;;;15.90;76.60;;;;;;5091821;28;20127;-63
2021/10/12 11:46:26;;;;;;;7.13;1.75;;;15.90;76.70;;;;;;5091456;28;20666;-62
2021/10/12 11:48:53;;;;;;;9.73;2.13;;;15.90;76.30;;;;;;5091764;28;20069;-63
2021/10/12 11:51:20;;;;;;;3.80;1.40;;;15.90;75.90;;;;;;5090479;28;20051;-65
2021/10/12 11:53:47;;;;;;;6.50;1.65;;;15.90;76.00;;;;;;5090959;28;20044;-63
2021/10/12 11:56:14;;;;;;;5.15;1.20;;;15.90;75.90;;;;;;5091703;28;20495;-60
2021/10/12 11:58:41;;;;;;;6.43;2.00;;;15.90;75.90;;;;;;5091621;28;20058;-66
2021/10/12 12:01:09;;;;;;;7.18;1.55;;;15.90;75.40;;;;;;5091175;28;20488;-62
2021/10/12 12:03:35;;;;;;;5.32;1.73;;;15.90;75.80;;;;;;5091110;28;20127;-62
2021/10/12 12:06:01;;;;;;;4.35;1.90;;;15.90;76.30;;;;;;5091167;28;20146;-62
2021/10/12 12:08:31;;;;;;;4.57;1.48;;;15.90;76.70;;;;;;5091288;28;20051;-59
2021/10/12 12:10:58;;;;;;;4.78;1.60;;;15.90;77.10;;;;;;5091031;28;20455;-60
2021/10/12 12:13:28;;;;;;;7.70;1.40;;;15.90;77.50;;;;;;5091320;28;20044;-61
2021/10/12 12:15:55;;;;;;;3.00;1.02;;;15.90;77.90;;;;;;5091017;28;20505;-59
2021/10/12 12:18:25;;;;;;;4.40;1.90;;;15.90;78.30;;;;;;5090898;28;20048;-62
2021/10/12 12:20:59;;;;;;;4.20;1.40;;;15.90;78.60;;;;;;5090936;28;20055;-60
2021/10/12 12:23:35;;;;;;;4.43;1.25;;;15.90;78.90;;;;;;5091060;28;20245;-60
2021/10/12 12:26:03;;;;;;;3.90;1.27;;;15.90;79.10;;;;;;5091025;28;20089;-60
2021/10/12 12:28:29;;;;;;;5.07;1.50;;;15.90;79.30;;;;;;5091100;28;20519;-61
2021/10/12 12:30:55;;;;;;;4.43;1.20;;;15.90;79.50;;;;;;5088978;28;20087;-62
2021/10/12 12:33:21;;;;;;;3.60;1.23;;;15.90;79.70;;;;;;5090712;28;20036;-60
2021/10/12 12:35:49;;;;;;;3.30;1.35;;;15.90;79.90;;;;;;5090731;28;20411;-60
2021/10/12 12:38:28;;;;;;;2.05;0.93;;;15.90;80.00;;;;;;5089895;28;20055;-62
2021/10/12 12:40:54;;;;;;;2.88;1.02;;;15.90;80.10;;;;;;5088848;28;20059;-59
2021/10/12 12:43:22;;;;;;;2.30;1.10;;;15.90;80.30;;;;;;5091083;28;20047;-59
2021/10/12 12:46:07;;;;;;;3.63;1.17;;;15.90;80.40;;;;;;5091104;28;20072;-60
2021/10/12 12:48:32;;;;;;;3.80;1.10;;;15.90;80.40;;;;;;5091106;28;20456;-61
2021/10/12 12:51:05;;;;;;;3.83;1.52;;;15.90;80.60;;;;;;5091422;28;20297;-60
2021/10/12 12:53:44;;;;;;;2.42;0.98;;;15.90;80.60;;;;;;5091857;28;20150;-62